sensor_id;sensor_type;location;lat;lon;timestamp;pressure;altitude;pressure_sealevel;temperature;humidity
52975;BME280;38839;45.186;5.720;2023-04-01T00:01:57;98848.69;;;11.52;70.24
52975;BME280;38839;45.186;5.720;2023-04-01T00:04:22;98851.31;;;11.52;70.61
52975;BME280;38839;45.186;5.720;2023-04-01T00:06:48;98851.34;;;11.51;70.35
52975;BME280;38839;45.186;5.720;2023-04-01T00:09:13;98858.28;;;11.53;70.54
52975;BME280;38839;45.186;5.720;2023-04-01T00:11:39;98859.06;;;11.58;70.70
52975;BME280;38839;45.186;5.720;2023-04-01T00:14:05;98860.78;;;11.62;70.54
52975;BME280;38839;45.186;5.720;2023-04-01T00:16:30;98851.28;;;11.55;70.92
52975;BME280;38839;45.186;5.720;2023-04-01T00:18:56;98855.69;;;11.53;71.44
52975;BME280;38839;45.186;5.720;2023-04-01T00:21:22;98861.75;;;11.52;71.22
52975;BME280;38839;45.186;5.720;2023-04-01T00:23:48;98859.19;;;11.49;71.26
52975;BME280;38839;45.186;5.720;2023-04-01T00:26:14;98864.50;;;11.43;71.56
52975;BME280;38839;45.186;5.720;2023-04-01T00:28:44;98865.38;;;11.42;71.72
52975;BME280;38839;45.186;5.720;2023-04-01T00:31:10;98866.41;;;11.27;72.65
52975;BME280;38839;45.186;5.720;2023-04-01T00:33:36;98859.47;;;11.26;72.86
52975;BME280;38839;45.186;5.720;2023-04-01T00:36:10;98862.09;;;11.21;73.20
52975;BME280;38839;45.186;5.720;2023-04-01T00:38:37;98852.63;;;11.11;73.26
52975;BME280;38839;45.186;5.720;2023-04-01T00:41:03;98862.28;;;11.06;73.55
52975;BME280;38839;45.186;5.720;2023-04-01T00:43:28;98867.50;;;11.03;73.86
52975;BME280;38839;45.186;5.720;2023-04-01T00:45:54;98870.13;;;11.03;74.28
52975;BME280;38839;45.186;5.720;2023-04-01T00:51:09;98852.75;;;10.99;74.88
52975;BME280;38839;45.186;5.720;2023-04-01T00:53:39;98848.41;;;10.99;74.52
52975;BME280;38839;45.186;5.720;2023-04-01T00:56:11;98859.72;;;10.97;74.88
52975;BME280;38839;45.186;5.720;2023-04-01T00:58:42;98863.19;;;10.99;74.90
52975;BME280;38839;45.186;5.720;2023-04-01T01:01:09;98846.69;;;10.98;74.99
52975;BME280;38839;45.186;5.720;2023-04-01T01:03:35;98843.28;;;10.92;74.94
52975;BME280;38839;45.186;5.720;2023-04-01T01:08:43;98852.81;;;10.96;74.46
52975;BME280;38839;45.186;5.720;2023-04-01T01:11:14;98843.22;;;10.95;74.47
52975;BME280;38839;45.186;5.720;2023-04-01T01:16:27;98848.50;;;10.92;74.50
52975;BME280;38839;45.186;5.720;2023-04-01T01:22:36;98847.53;;;10.99;73.89
52975;BME280;38839;45.186;5.720;2023-04-01T01:27:09;98847.66;;;10.86;74.28
52975;BME280;38839;45.186;5.720;2023-04-01T01:32:59;98842.53;;;10.74;75.23
52975;BME280;38839;45.186;5.720;2023-04-01T01:38:15;98840.78;;;10.79;75.61
52975;BME280;38839;45.186;5.720;2023-04-01T01:40:44;98841.66;;;10.77;75.58
52975;BME280;38839;45.186;5.720;2023-04-01T01:43:13;98845.09;;;10.82;75.47
52975;BME280;38839;45.186;5.720;2023-04-01T01:45:46;98838.06;;;10.88;75.46
52975;BME280;38839;45.186;5.720;2023-04-01T01:48:14;98835.50;;;10.87;75.21
52975;BME280;38839;45.186;5.720;2023-04-01T01:50:41;98835.50;;;10.85;74.73
52975;BME280;38839;45.186;5.720;2023-04-01T01:53:10;98832.03;;;10.83;74.49
52975;BME280;38839;45.186;5.720;2023-04-01T01:55:41;98827.66;;;10.85;74.52
52975;BME280;38839;45.186;5.720;2023-04-01T01:58:19;98835.50;;;10.85;74.58
52975;BME280;38839;45.186;5.720;2023-04-01T02:00:50;98835.50;;;10.82;74.69
52975;BME280;38839;45.186;5.720;2023-04-01T02:03:17;98827.72;;;10.81;74.76
52975;BME280;38839;45.186;5.720;2023-04-01T02:05:43;98826.03;;;10.77;74.97
52975;BME280;38839;45.186;5.720;2023-04-01T02:08:15;98827.72;;;10.81;74.90
52975;BME280;38839;45.186;5.720;2023-04-01T02:10:45;98826.88;;;10.77;74.83
52975;BME280;38839;45.186;5.720;2023-04-01T02:13:23;98825.06;;;10.82;74.90
52975;BME280;38839;45.186;5.720;2023-04-01T02:15:52;98839.88;;;10.82;75.07
52975;BME280;38839;45.186;5.720;2023-04-01T02:18:22;98825.97;;;10.80;74.84
52975;BME280;38839;45.186;5.720;2023-04-01T02:20:48;98826.03;;;10.77;74.86
52975;BME280;38839;45.186;5.720;2023-04-01T02:23:14;98829.50;;;10.76;74.89
52975;BME280;38839;45.186;5.720;2023-04-01T02:25:41;98829.69;;;10.54;75.63
52975;BME280;38839;45.186;5.720;2023-04-01T02:28:08;98841.78;;;10.64;75.50
52975;BME280;38839;45.186;5.720;2023-04-01T02:30:36;98834.75;;;10.71;75.64
52975;BME280;38839;45.186;5.720;2023-04-01T02:33:05;98833.91;;;10.71;75.33
52975;BME280;38839;45.186;5.720;2023-04-01T02:35:33;98828.69;;;10.67;75.78
52975;BME280;38839;45.186;5.720;2023-04-01T02:38:01;98820.88;;;10.67;75.67
52975;BME280;38839;45.186;5.720;2023-04-01T02:40:27;98813.03;;;10.69;75.38
52975;BME280;38839;45.186;5.720;2023-04-01T02:42:52;98814.78;;;10.67;75.38
52975;BME280;38839;45.186;5.720;2023-04-01T02:45:17;98815.66;;;10.69;75.14
52975;BME280;38839;45.186;5.720;2023-04-01T02:47:43;98823.47;;;10.69;74.95
52975;BME280;38839;45.186;5.720;2023-04-01T02:50:09;98828.69;;;10.69;75.05
52975;BME280;38839;45.186;5.720;2023-04-01T02:52:35;98820.84;;;10.71;75.08
52975;BME280;38839;45.186;5.720;2023-04-01T02:55:01;98826.03;;;10.72;75.25
52975;BME280;38839;45.186;5.720;2023-04-01T02:57:26;98817.34;;;10.72;75.20
52975;BME280;38839;45.186;5.720;2023-04-01T02:59:52;98820.81;;;10.74;75.08
52975;BME280;38839;45.186;5.720;2023-04-01T03:02:17;98826.06;;;10.71;75.49
52975;BME280;38839;45.186;5.720;2023-04-01T03:04:43;98820.03;;;10.64;75.79
52975;BME280;38839;45.186;5.720;2023-04-01T03:07:09;98828.78;;;10.57;76.38
52975;BME280;38839;45.186;5.720;2023-04-01T03:09:37;98827.91;;;10.59;76.17
52975;BME280;38839;45.186;5.720;2023-04-01T03:12:03;98827.03;;;10.56;76.42
52975;BME280;38839;45.186;5.720;2023-04-01T03:14:29;98829.75;;;10.48;76.79
52975;BME280;38839;45.186;5.720;2023-04-01T03:16:54;98823.72;;;10.40;77.64
52975;BME280;38839;45.186;5.720;2023-04-01T03:19:20;98822.22;;;9.94;80.96
52975;BME280;38839;45.186;5.720;2023-04-01T03:21:45;98812.03;;;9.51;83.07
52975;BME280;38839;45.186;5.720;2023-04-01T03:24:10;98824.25;;;9.37;84.66
52975;BME280;38839;45.186;5.720;2023-04-01T03:26:36;98813.88;;;9.18;85.91
52975;BME280;38839;45.186;5.720;2023-04-01T03:29:01;98812.16;;;9.14;86.24
52975;BME280;38839;45.186;5.720;2023-04-01T03:31:27;98802.63;;;9.21;85.28
52975;BME280;38839;45.186;5.720;2023-04-01T03:33:52;98806.09;;;9.21;85.90
52975;BME280;38839;45.186;5.720;2023-04-01T03:36:17;98800.03;;;9.19;85.86
52975;BME280;38839;45.186;5.720;2023-04-01T03:38:43;98803.47;;;9.21;85.89
52975;BME280;38839;45.186;5.720;2023-04-01T03:41:17;98801.75;;;9.20;86.68
52975;BME280;38839;45.186;5.720;2023-04-01T03:43:43;98806.94;;;9.23;85.96
52975;BME280;38839;45.186;5.720;2023-04-01T03:46:09;98800.00;;;9.22;86.11
52975;BME280;38839;45.186;5.720;2023-04-01T03:48:34;98806.94;;;9.23;85.89
52975;BME280;38839;45.186;5.720;2023-04-01T03:51:00;98797.38;;;9.30;85.13
52975;BME280;38839;45.186;5.720;2023-04-01T03:53:25;98778.25;;;9.40;84.41
52975;BME280;38839;45.186;5.720;2023-04-01T03:55:52;98772.09;;;9.58;84.17
52975;BME280;38839;45.186;5.720;2023-04-01T03:58:17;98770.25;;;9.76;83.05
52975;BME280;38839;45.186;5.720;2023-04-01T04:00:43;98773.72;;;9.75;82.57
52975;BME280;38839;45.186;5.720;2023-04-01T04:03:08;98774.56;;;9.81;82.22
52975;BME280;38839;45.186;5.720;2023-04-01T04:05:34;98777.97;;;9.93;81.67
52975;BME280;38839;45.186;5.720;2023-04-01T04:08:00;98774.38;;;10.04;81.32
52975;BME280;38839;45.186;5.720;2023-04-01T04:10:25;98782.13;;;10.17;80.25
52975;BME280;38839;45.186;5.720;2023-04-01T04:12:51;98783.00;;;10.17;80.08
52975;BME280;38839;45.186;5.720;2023-04-01T04:15:17;98780.38;;;10.19;79.69
52975;BME280;38839;45.186;5.720;2023-04-01T04:17:44;98787.28;;;10.24;79.30
52975;BME280;38839;45.186;5.720;2023-04-01T04:20:09;98782.06;;;10.32;78.72
52975;BME280;38839;45.186;5.720;2023-04-01T04:22:35;98785.50;;;10.34;78.33
52975;BME280;38839;45.186;5.720;2023-04-01T04:25:00;98784.66;;;10.32;78.21
52975;BME280;38839;45.186;5.720;2023-04-01T04:27:26;98789.88;;;10.32;78.02
52975;BME280;38839;45.186;5.720;2023-04-01T04:29:52;98799.56;;;10.08;79.03
52975;BME280;38839;45.186;5.720;2023-04-01T04:32:18;98806.44;;;10.19;78.89
52975;BME280;38839;45.186;5.720;2023-04-01T04:34:43;98799.44;;;10.30;78.31
52975;BME280;38839;45.186;5.720;2023-04-01T04:37:09;98784.72;;;10.18;79.11
52975;BME280;38839;45.186;5.720;2023-04-01T04:39:34;98770.13;;;9.94;80.01
52975;BME280;38839;45.186;5.720;2023-04-01T04:41:59;98781.31;;;10.08;79.28
52975;BME280;38839;45.186;5.720;2023-04-01T04:44:25;98786.44;;;10.21;78.94
52975;BME280;38839;45.186;5.720;2023-04-01T04:46:50;98789.03;;;10.30;78.54
52975;BME280;38839;45.186;5.720;2023-04-01T04:49:16;98794.25;;;10.30;78.71
52975;BME280;38839;45.186;5.720;2023-04-01T04:51:41;98797.66;;;10.38;78.92
52975;BME280;38839;45.186;5.720;2023-04-01T04:54:08;98808.03;;;10.44;78.70
52975;BME280;38839;45.186;5.720;2023-04-01T04:56:34;98801.91;;;10.45;78.70
52975;BME280;38839;45.186;5.720;2023-04-01T04:59:01;98801.06;;;10.46;78.61
52975;BME280;38839;45.186;5.720;2023-04-01T05:01:27;98804.50;;;10.49;78.46
52975;BME280;38839;45.186;5.720;2023-04-01T05:03:52;98804.53;;;10.45;78.64
52975;BME280;38839;45.186;5.720;2023-04-01T05:06:18;98786.31;;;10.42;78.33
52975;BME280;38839;45.186;5.720;2023-04-01T05:08:44;98788.91;;;10.42;78.67
52975;BME280;38839;45.186;5.720;2023-04-01T05:11:13;98778.56;;;10.33;79.07
52975;BME280;38839;45.186;5.720;2023-04-01T05:13:38;98785.53;;;10.28;78.95
52975;BME280;38839;45.186;5.720;2023-04-01T05:16:08;98789.03;;;10.21;79.51
52975;BME280;38839;45.186;5.720;2023-04-01T05:18:33;98777.03;;;10.00;80.29
52975;BME280;38839;45.186;5.720;2023-04-01T05:20:59;98782.13;;;10.17;79.70
52975;BME280;38839;45.186;5.720;2023-04-01T05:23:24;98782.13;;;10.18;79.51
52975;BME280;38839;45.186;5.720;2023-04-01T05:25:50;98786.50;;;10.13;79.44
52975;BME280;38839;45.186;5.720;2023-04-01T05:28:18;98783.09;;;10.02;80.34
52975;BME280;38839;45.186;5.720;2023-04-01T05:30:44;98794.38;;;10.02;80.37
52975;BME280;38839;45.186;5.720;2023-04-01T05:33:11;98787.50;;;9.92;80.40
52975;BME280;38839;45.186;5.720;2023-04-01T05:35:37;98794.38;;;10.04;79.97
52975;BME280;38839;45.186;5.720;2023-04-01T05:38:03;98796.06;;;10.13;79.53
52975;BME280;38839;45.186;5.720;2023-04-01T05:40:29;98795.19;;;10.12;79.76
52975;BME280;38839;45.186;5.720;2023-04-01T05:42:55;98798.72;;;10.05;80.13
52975;BME280;38839;45.186;5.720;2023-04-01T05:45:20;98806.56;;;10.03;80.49
52975;BME280;38839;45.186;5.720;2023-04-01T05:47:46;98811.69;;;10.16;80.20
52975;BME280;38839;45.186;5.720;2023-04-01T05:50:12;98815.06;;;10.27;79.49
52975;BME280;38839;45.186;5.720;2023-04-01T05:52:38;98825.44;;;10.39;79.58
52975;BME280;38839;45.186;5.720;2023-04-01T05:55:04;98825.38;;;10.47;79.59
52975;BME280;38839;45.186;5.720;2023-04-01T05:57:29;98827.97;;;10.50;79.27
52975;BME280;38839;45.186;5.720;2023-04-01T05:59:55;98824.44;;;10.56;79.09
52975;BME280;38839;45.186;5.720;2023-04-01T06:02:20;98827.03;;;10.59;78.94
52975;BME280;38839;45.186;5.720;2023-04-01T06:04:46;98823.47;;;10.69;78.83
52975;BME280;38839;45.186;5.720;2023-04-01T06:07:13;98836.41;;;10.81;77.93
52975;BME280;38839;45.186;5.720;2023-04-01T06:09:39;98830.28;;;10.82;78.14
52975;BME280;38839;45.186;5.720;2023-04-01T06:20:41;98852.13;;;10.72;79.09
52975;BME280;38839;45.186;5.720;2023-04-01T06:31:03;98858.25;;;10.68;78.64
52975;BME280;38839;45.186;5.720;2023-04-01T06:47:45;98869.69;;;10.52;79.09
52975;BME280;38839;45.186;5.720;2023-04-01T06:53:15;98872.25;;;10.58;78.68
52975;BME280;38839;45.186;5.720;2023-04-01T06:55:44;98870.66;;;10.35;77.40
52975;BME280;38839;45.186;5.720;2023-04-01T06:58:27;98861.91;;;10.45;76.65
52975;BME280;38839;45.186;5.720;2023-04-01T07:00:58;98873.09;;;10.63;76.14
52975;BME280;38839;45.186;5.720;2023-04-01T07:03:41;98873.84;;;10.77;75.14
52975;BME280;38839;45.186;5.720;2023-04-01T07:06:14;98879.63;;;11.10;74.81
52975;BME280;38839;45.186;5.720;2023-04-01T07:51:03;98874.28;;;12.60;68.94
52975;BME280;38839;45.186;5.720;2023-04-01T07:53:53;98868.59;;;12.32;69.54
52975;BME280;38839;45.186;5.720;2023-04-01T07:56:51;98865.63;;;11.96;70.83
52975;BME280;38839;45.186;5.720;2023-04-01T08:07:54;98876.03;;;12.58;69.51
52975;BME280;38839;45.186;5.720;2023-04-01T08:10:43;98880.56;;;12.48;69.70
52975;BME280;38839;45.186;5.720;2023-04-01T08:14:18;98894.63;;;12.43;69.80
52975;BME280;38839;45.186;5.720;2023-04-01T08:20:11;98902.66;;;12.27;69.75
52975;BME280;38839;45.186;5.720;2023-04-01T08:24:55;98917.22;;;12.47;69.77
52975;BME280;38839;45.186;5.720;2023-04-01T08:27:37;98918.88;;;12.53;69.78
52975;BME280;38839;45.186;5.720;2023-04-01T08:30:25;98915.47;;;12.47;70.43
52975;BME280;38839;45.186;5.720;2023-04-01T08:33:19;98918.94;;;12.46;70.35
52975;BME280;38839;45.186;5.720;2023-04-01T08:35:53;98919.72;;;12.55;69.27
52975;BME280;38839;45.186;5.720;2023-04-01T08:38:37;98915.19;;;12.66;68.85
52975;BME280;38839;45.186;5.720;2023-04-01T08:41:42;98915.19;;;12.66;
52975;BME280;38839;45.186;5.720;2023-04-01T08:50:36;98908.25;;;12.63;67.43
52975;BME280;38839;45.186;5.720;2023-04-01T08:56:06;98901.69;;;13.43;65.46
52975;BME280;38839;45.186;5.720;2023-04-01T09:01:37;98887.66;;;13.89;65.48
52975;BME280;38839;45.186;5.720;2023-04-01T09:17:42;98879.09;;;15.31;56.30
52975;BME280;38839;45.186;5.720;2023-04-01T09:23:40;98878.50;;;14.87;57.33
52975;BME280;38839;45.186;5.720;2023-04-01T09:57:27;98853.31;;;16.06;50.35
52975;BME280;38839;45.186;5.720;2023-04-01T10:11:19;98839.72;;;15.92;49.92
52975;BME280;38839;45.186;5.720;2023-04-01T10:14:03;98838.44;;;15.76;49.97
52975;BME280;38839;45.186;5.720;2023-04-01T10:24:42;98825.00;;;15.54;52.65
52975;BME280;38839;45.186;5.720;2023-04-01T10:49:30;98811.56;;;15.02;54.66
52975;BME280;38839;45.186;5.720;2023-04-01T10:54:47;98797.31;;;15.11;54.71
52975;BME280;38839;45.186;5.720;2023-04-01T11:16:22;98765.78;;;16.55;50.50
52975;BME280;38839;45.186;5.720;2023-04-01T11:33:24;98785.94;;;15.10;53.94
52975;BME280;38839;45.186;5.720;2023-04-01T11:39:01;98782.56;;;14.72;55.14
52975;BME280;38839;45.186;5.720;2023-04-01T11:41:37;98775.31;;;14.82;55.93
52975;BME280;38839;45.186;5.720;2023-04-01T11:44:16;98773.28;;;14.93;56.02
52975;BME280;38839;45.186;5.720;2023-04-01T11:52:26;98763.28;;;14.37;58.24
52975;BME280;38839;45.186;5.720;2023-04-01T11:55:24;98757.53;;;14.59;57.50
52975;BME280;38839;45.186;5.720;2023-04-01T12:09:34;98718.56;;;14.76;51.97
52975;BME280;38839;45.186;5.720;2023-04-01T12:20:50;98694.38;;;14.65;50.87
52975;BME280;38839;45.186;5.720;2023-04-01T12:23:44;98691.78;;;14.63;50.95
52975;BME280;38839;45.186;5.720;2023-04-01T12:35:15;98679.72;;;14.89;52.08
52975;BME280;38839;45.186;5.720;2023-04-01T12:43:21;98654.03;;;15.28;49.88
52975;BME280;38839;45.186;5.720;2023-04-01T12:46:13;98655.91;;;15.23;50.67
52975;BME280;38839;45.186;5.720;2023-04-01T12:54:50;98638.34;;;14.96;51.68
52975;BME280;38839;45.186;5.720;2023-04-01T12:57:36;98633.06;;;14.97;51.88
52975;BME280;38839;45.186;5.720;2023-04-01T13:14:36;98602.28;;;15.01;51.80
52975;BME280;38839;45.186;5.720;2023-04-01T13:19:38;98581.25;;;15.31;51.40
52975;BME280;38839;45.186;5.720;2023-04-01T13:22:20;98575.53;;;15.73;50.48
52975;BME280;38839;45.186;5.720;2023-04-01T13:25:00;98578.16;;;15.99;50.00
52975;BME280;38839;45.186;5.720;2023-04-01T13:27:34;98565.97;;;16.22;49.38
52975;BME280;38839;45.186;5.720;2023-04-01T13:32:57;98548.81;;;16.35;48.37
52975;BME280;38839;45.186;5.720;2023-04-01T13:38:41;98537.59;;;16.30;47.62
52975;BME280;38839;45.186;5.720;2023-04-01T13:55:39;98521.88;;;15.78;47.85
52975;BME280;38839;45.186;5.720;2023-04-01T14:03:28;98519.59;;;15.41;47.35
52975;BME280;38839;45.186;5.720;2023-04-01T14:09:10;98521.06;;;15.23;47.55
52975;BME280;38839;45.186;5.720;2023-04-01T14:14:29;98523.38;;;15.05;49.33
52975;BME280;38839;45.186;5.720;2023-04-01T14:22:57;98522.44;;;14.78;51.95
52975;BME280;38839;45.186;5.720;2023-04-01T14:33:49;98525.28;;;14.39;51.69
52975;BME280;38839;45.186;5.720;2023-04-01T14:36:49;98536.78;;;14.35;53.36
52975;BME280;38839;45.186;5.720;2023-04-01T14:40:00;98538.09;;;14.19;53.76
52975;BME280;38839;45.186;5.720;2023-04-01T14:50:24;98548.94;;;13.38;56.91
52975;BME280;38839;45.186;5.720;2023-04-01T15:01:07;98565.22;;;13.13;60.38
52975;BME280;38839;45.186;5.720;2023-04-01T15:09:59;98567.13;;;12.64;60.96
52975;BME280;38839;45.186;5.720;2023-04-01T15:12:39;98564.63;;;12.60;61.76
52975;BME280;38839;45.186;5.720;2023-04-01T15:18:13;98576.41;;;12.37;61.06
52975;BME280;38839;45.186;5.720;2023-04-01T15:26:25;98591.03;;;12.01;62.42
52975;BME280;38839;45.186;5.720;2023-04-01T15:29:06;98592.00;;;11.95;62.81
52975;BME280;38839;45.186;5.720;2023-04-01T15:45:55;98595.13;;;12.16;65.02
52975;BME280;38839;45.186;5.720;2023-04-01T15:48:33;98573.41;;;12.12;65.82
52975;BME280;38839;45.186;5.720;2023-04-01T15:56:46;98566.91;;;12.33;65.64
52975;BME280;38839;45.186;5.720;2023-04-01T16:10:23;98583.09;;;12.52;65.75
52975;BME280;38839;45.186;5.720;2023-04-01T16:13:19;98585.94;;;12.41;66.25
52975;BME280;38839;45.186;5.720;2023-04-01T16:21:26;98615.91;;;12.23;68.36
52975;BME280;38839;45.186;5.720;2023-04-01T16:24:02;98621.22;;;12.19;68.80
52975;BME280;38839;45.186;5.720;2023-04-01T16:26:57;98622.94;;;12.20;70.66
52975;BME280;38839;45.186;5.720;2023-04-01T16:29:27;98628.91;;;12.28;69.25
52975;BME280;38839;45.186;5.720;2023-04-01T16:34:38;98640.63;;;12.05;70.15
52975;BME280;38839;45.186;5.720;2023-04-01T16:37:10;98632.13;;;11.94;70.67
52975;BME280;38839;45.186;5.720;2023-04-01T16:42:50;98630.72;;;12.24;68.17
52975;BME280;38839;45.186;5.720;2023-04-01T16:47:48;98633.13;;;12.37;67.16
52975;BME280;38839;45.186;5.720;2023-04-01T16:50:20;98627.28;;;12.22;64.37
52975;BME280;38839;45.186;5.720;2023-04-01T16:53:09;98628.28;;;12.14;62.32
52975;BME280;38839;45.186;5.720;2023-04-01T16:55:49;98625.50;;;12.24;61.05
52975;BME280;38839;45.186;5.720;2023-04-01T17:01:02;98623.03;;;12.15;60.06
52975;BME280;38839;45.186;5.720;2023-04-01T17:03:33;98621.56;;;12.00;59.38
52975;BME280;38839;45.186;5.720;2023-04-01T17:09:18;98619.22;;;11.82;59.74
52975;BME280;38839;45.186;5.720;2023-04-01T17:14:48;98616.44;;;11.94;59.21
52975;BME280;38839;45.186;5.720;2023-04-01T17:17:23;98607.66;;;11.98;59.77
52975;BME280;38839;45.186;5.720;2023-04-01T17:25:38;98616.50;;;11.88;62.65
52975;BME280;38839;45.186;5.720;2023-04-01T17:33:35;98609.84;;;11.68;63.78
52975;BME280;38839;45.186;5.720;2023-04-01T17:39:33;98613.59;;;11.52;63.76
52975;BME280;38839;45.186;5.720;2023-04-01T17:42:14;98617.19;;;11.45;64.37
52975;BME280;38839;45.186;5.720;2023-04-01T17:44:58;98632.91;;;11.42;63.93
52975;BME280;38839;45.186;5.720;2023-04-01T17:50:28;98637.09;;;11.52;64.47
52975;BME280;38839;45.186;5.720;2023-04-01T18:10:29;98663.03;;;11.05;65.91
52975;BME280;38839;45.186;5.720;2023-04-01T18:13:36;98677.91;;;10.97;66.46
52975;BME280;38839;45.186;5.720;2023-04-01T18:19:15;98683.31;;;10.82;68.06
52975;BME280;38839;45.186;5.720;2023-04-01T18:21:50;98691.16;;;10.80;68.42
52975;BME280;38839;45.186;5.720;2023-04-01T18:24:30;98691.19;;;10.77;69.79
52975;BME280;38839;45.186;5.720;2023-04-01T18:27:04;98691.19;;;10.77;70.00
52975;BME280;38839;45.186;5.720;2023-04-01T18:29:52;98687.81;;;10.69;72.29
52975;BME280;38839;45.186;5.720;2023-04-01T18:32:35;98696.53;;;10.65;72.00
52975;BME280;38839;45.186;5.720;2023-04-01T18:40:48;98703.59;;;10.57;74.66
52975;BME280;38839;45.186;5.720;2023-04-01T18:43:46;98696.75;;;10.43;75.15
52975;BME280;38839;45.186;5.720;2023-04-01T18:46:22;98696.75;;;10.46;75.26
52975;BME280;38839;45.186;5.720;2023-04-01T18:49:15;98707.16;;;10.46;75.65
52975;BME280;38839;45.186;5.720;2023-04-01T18:51:49;98702.03;;;10.37;76.40
52975;BME280;38839;45.186;5.720;2023-04-01T18:54:32;98702.97;;;10.27;77.03
52975;BME280;38839;45.186;5.720;2023-04-01T18:57:03;98700.41;;;10.24;77.16
52975;BME280;38839;45.186;5.720;2023-04-01T18:59:54;98700.41;;;10.24;78.24
52975;BME280;38839;45.186;5.720;2023-04-01T19:02:30;98705.56;;;10.27;78.55
52975;BME280;38839;45.186;5.720;2023-04-01T19:07:42;98713.53;;;10.13;79.16
52975;BME280;38839;45.186;5.720;2023-04-01T19:34:50;98727.81;;;9.60;81.87
52975;BME280;38839;45.186;5.720;2023-04-01T19:37:34;98733.94;;;9.48;82.82
52975;BME280;38839;45.186;5.720;2023-04-01T19:40:37;98739.13;;;9.51;83.14
52975;BME280;38839;45.186;5.720;2023-04-01T19:51:19;98742.53;;;9.59;83.25
52975;BME280;38839;45.186;5.720;2023-04-01T19:56:58;98746.91;;;9.59;82.57
52975;BME280;38839;45.186;5.720;2023-04-01T19:59:54;98751.28;;;9.52;82.81
52975;BME280;38839;45.186;5.720;2023-04-01T20:08:26;98740.03;;;9.45;80.00
52975;BME280;38839;45.186;5.720;2023-04-01T20:11:08;98737.38;;;9.56;79.96
52975;BME280;38839;45.186;5.720;2023-04-01T20:13:52;98741.69;;;9.59;79.86
52975;BME280;38839;45.186;5.720;2023-04-01T20:16:20;98732.94;;;9.67;79.94
52975;BME280;38839;45.186;5.720;2023-04-01T20:18:59;98734.72;;;9.62;80.14
52975;BME280;38839;45.186;5.720;2023-04-01T20:21:35;98739.09;;;9.57;78.30
52975;BME280;38839;45.186;5.720;2023-04-01T20:24:04;98736.47;;;9.62;78.92
52975;BME280;38839;45.186;5.720;2023-04-01T20:26:38;98735.63;;;9.57;78.64
52975;BME280;38839;45.186;5.720;2023-04-01T20:35:18;98730.56;;;9.34;78.53
52975;BME280;38839;45.186;5.720;2023-04-01T20:46:19;98728.00;;;9.21;78.01
52975;BME280;38839;45.186;5.720;2023-04-01T20:51:23;98734.84;;;9.44;76.25
52975;BME280;38839;45.186;5.720;2023-04-01T20:57:44;98726.19;;;9.34;79.33
52975;BME280;38839;45.186;5.720;2023-04-01T21:00:33;98726.31;;;9.11;83.60
52975;BME280;38839;45.186;5.720;2023-04-01T21:11:20;98730.72;;;8.88;86.16
52975;BME280;38839;45.186;5.720;2023-04-01T21:14:28;98726.34;;;8.97;86.61
52975;BME280;38839;45.186;5.720;2023-04-01T21:17:13;98722.91;;;8.94;86.02
52975;BME280;38839;45.186;5.720;2023-04-01T21:22:41;98735.94;;;8.81;88.83
52975;BME280;38839;45.186;5.720;2023-04-01T21:25:45;98732.53;;;8.64;89.85
52975;BME280;38839;45.186;5.720;2023-04-01T21:34:07;98728.22;;;8.52;90.99
52975;BME280;38839;45.186;5.720;2023-04-01T21:45:06;98728.19;;;8.71;88.13
52975;BME280;38839;45.186;5.720;2023-04-01T21:59:39;98724.72;;;8.67;87.36
52975;BME280;38839;45.186;5.720;2023-04-01T22:02:23;98719.50;;;8.70;87.58
52975;BME280;38839;45.186;5.720;2023-04-01T22:05:07;98716.94;;;8.64;87.21
52975;BME280;38839;45.186;5.720;2023-04-01T22:07:47;98715.19;;;8.63;87.01
52975;BME280;38839;45.186;5.720;2023-04-01T22:18:29;98711.72;;;8.67;87.46
52975;BME280;38839;45.186;5.720;2023-04-01T22:21:00;98703.06;;;8.59;87.54
52975;BME280;38839;45.186;5.720;2023-04-01T22:26:38;98707.38;;;8.64;88.32
52975;BME280;38839;45.186;5.720;2023-04-01T22:29:58;98712.56;;;8.74;87.19
52975;BME280;38839;45.186;5.720;2023-04-01T22:32:41;98713.44;;;8.71;87.30
52975;BME280;38839;45.186;5.720;2023-04-01T22:37:58;98713.44;;;8.71;87.08
52975;BME280;38839;45.186;5.720;2023-04-01T22:43:43;98719.53;;;8.58;86.74
52975;BME280;38839;45.186;5.720;2023-04-01T22:49:20;98716.94;;;8.55;85.99
52975;BME280;38839;45.186;5.720;2023-04-01T22:51:52;98716.94;;;8.55;86.25
52975;BME280;38839;45.186;5.720;2023-04-01T22:54:22;98717.81;;;8.37;87.20
52975;BME280;38839;45.186;5.720;2023-04-01T22:57:04;98728.22;;;8.31;87.83
52975;BME280;38839;45.186;5.720;2023-04-01T22:59:48;98716.06;;;8.34;87.72
52975;BME280;38839;45.186;5.720;2023-04-01T23:02:21;98716.06;;;8.34;88.02
52975;BME280;38839;45.186;5.720;2023-04-01T23:04:54;98723.00;;;8.34;88.25
52975;BME280;38839;45.186;5.720;2023-04-01T23:07:33;98724.75;;;8.44;87.85
52975;BME280;38839;45.186;5.720;2023-04-01T23:10:05;98726.47;;;8.40;87.23
52975;BME280;38839;45.186;5.720;2023-04-01T23:12:36;98727.34;;;8.35;87.83
52975;BME280;38839;45.186;5.720;2023-04-01T23:15:02;98730.81;;;8.54;87.97
52975;BME280;38839;45.186;5.720;2023-04-01T23:20:31;98734.22;;;8.77;86.49
52975;BME280;38839;45.186;5.720;2023-04-01T23:23:26;98735.06;;;8.87;85.92
52975;BME280;38839;45.186;5.720;2023-04-01T23:28:51;98722.88;;;9.03;85.02
52975;BME280;38839;45.186;5.720;2023-04-01T23:31:31;98731.53;;;9.02;84.93
52975;BME280;38839;45.186;5.720;2023-04-01T23:36:41;98739.34;;;9.06;84.69
52975;BME280;38839;45.186;5.720;2023-04-01T23:39:43;98744.59;;;8.90;85.70
52975;BME280;38839;45.186;5.720;2023-04-01T23:42:19;98748.09;;;8.82;86.04
52975;BME280;38839;45.186;5.720;2023-04-01T23:44:47;98742.03;;;8.82;86.49
52975;BME280;38839;45.186;5.720;2023-04-01T23:47:20;98742.06;;;8.62;88.13
52975;BME280;38839;45.186;5.720;2023-04-01T23:49:48;98745.56;;;8.47;89.57
52975;BME280;38839;45.186;5.720;2023-04-01T23:52:34;98749.88;;;8.13;91.53
52975;BME280;38839;45.186;5.720;2023-04-01T23:55:11;98747.28;;;8.11;91.85